sensor_id;sensor_type;location;lat;lon;timestamp;P1;durP1;ratioP1;P2;durP2;ratioP2
34737;SDS011;39910;47.154;27.614;2024-02-28T00:01:15;11.07;;;10.57;;
34737;SDS011;39910;47.154;27.614;2024-02-28T00:03:41;10.80;;;10.30;;
34737;SDS011;39910;47.154;27.614;2024-02-28T00:06:07;11.20;;;10.70;;
34737;SDS011;39910;47.154;27.614;2024-02-28T00:08:32;11.13;;;10.63;;
34737;SDS011;39910;47.154;27.614;2024-02-28T00:10:57;11.13;;;10.63;;
34737;SDS011;39910;47.154;27.614;2024-02-28T00:13:23;10.80;;;10.30;;
34737;SDS011;39910;47.154;27.614;2024-02-28T00:15:49;11.13;;;10.63;;
34737;SDS011;39910;47.154;27.614;2024-02-28T00:18:15;11.57;;;10.98;;
34737;SDS011;39910;47.154;27.614;2024-02-28T00:20:40;10.98;;;10.48;;
34737;SDS011;39910;47.154;27.614;2024-02-28T00:23:05;10.80;;;10.30;;
34737;SDS011;39910;47.154;27.614;2024-02-28T00:25:31;11.10;;;10.60;;
34737;SDS011;39910;47.154;27.614;2024-02-28T00:27:56;10.75;;;10.25;;
34737;SDS011;39910;47.154;27.614;2024-02-28T00:30:22;11.10;;;10.60;;
34737;SDS011;39910;47.154;27.614;2024-02-28T00:32:47;10.80;;;10.30;;
34737;SDS011;39910;47.154;27.614;2024-02-28T00:35:12;10.73;;;10.23;;
34737;SDS011;39910;47.154;27.614;2024-02-28T00:37:38;10.52;;;10.02;;
34737;SDS011;39910;47.154;27.614;2024-02-28T00:40:04;10.88;;;10.38;;
34737;SDS011;39910;47.154;27.614;2024-02-28T00:42:29;11.35;;;10.80;;
34737;SDS011;39910;47.154;27.614;2024-02-28T00:44:54;10.93;;;10.43;;
34737;SDS011;39910;47.154;27.614;2024-02-28T00:47:20;10.98;;;10.48;;
34737;SDS011;39910;47.154;27.614;2024-02-28T00:49:45;10.70;;;10.20;;
34737;SDS011;39910;47.154;27.614;2024-02-28T00:52:10;10.40;;;9.90;;
34737;SDS011;39910;47.154;27.614;2024-02-28T00:54:36;10.85;;;10.35;;
34737;SDS011;39910;47.154;27.614;2024-02-28T00:57:02;11.10;;;10.60;;
34737;SDS011;39910;47.154;27.614;2024-02-28T00:59:27;11.10;;;10.60;;
34737;SDS011;39910;47.154;27.614;2024-02-28T01:01:52;11.00;;;10.50;;
34737;SDS011;39910;47.154;27.614;2024-02-28T01:04:18;11.20;;;10.70;;
34737;SDS011;39910;47.154;27.614;2024-02-28T01:06:43;11.23;;;10.73;;
34737;SDS011;39910;47.154;27.614;2024-02-28T01:09:09;11.38;;;10.88;;
34737;SDS011;39910;47.154;27.614;2024-02-28T01:11:34;10.90;;;10.40;;
34737;SDS011;39910;47.154;27.614;2024-02-28T01:13:59;10.82;;;10.32;;
34737;SDS011;39910;47.154;27.614;2024-02-28T01:16:25;11.05;;;10.55;;
34737;SDS011;39910;47.154;27.614;2024-02-28T01:18:51;10.65;;;10.15;;
34737;SDS011;39910;47.154;27.614;2024-02-28T01:21:16;11.35;;;10.85;;
34737;SDS011;39910;47.154;27.614;2024-02-28T01:23:41;11.30;;;10.80;;
34737;SDS011;39910;47.154;27.614;2024-02-28T01:26:07;10.95;;;10.45;;
34737;SDS011;39910;47.154;27.614;2024-02-28T01:28:32;10.68;;;10.18;;
34737;SDS011;39910;47.154;27.614;2024-02-28T01:30:58;11.05;;;10.55;;
34737;SDS011;39910;47.154;27.614;2024-02-28T01:33:25;11.38;;;10.88;;
34737;SDS011;39910;47.154;27.614;2024-02-28T01:35:50;11.10;;;10.60;;
34737;SDS011;39910;47.154;27.614;2024-02-28T01:38:16;11.05;;;10.55;;
34737;SDS011;39910;47.154;27.614;2024-02-28T01:40:47;10.80;;;10.30;;
34737;SDS011;39910;47.154;27.614;2024-02-28T01:43:13;10.50;;;10.00;;
34737;SDS011;39910;47.154;27.614;2024-02-28T01:45:38;11.10;;;10.60;;
34737;SDS011;39910;47.154;27.614;2024-02-28T01:48:04;11.23;;;10.73;;
34737;SDS011;39910;47.154;27.614;2024-02-28T01:50:31;10.63;;;10.13;;
34737;SDS011;39910;47.154;27.614;2024-02-28T01:52:57;10.60;;;10.10;;
34737;SDS011;39910;47.154;27.614;2024-02-28T01:55:22;10.80;;;10.30;;
34737;SDS011;39910;47.154;27.614;2024-02-28T01:57:48;11.30;;;10.80;;
34737;SDS011;39910;47.154;27.614;2024-02-28T02:00:13;11.10;;;10.60;;
34737;SDS011;39910;47.154;27.614;2024-02-28T02:02:40;10.70;;;10.20;;
34737;SDS011;39910;47.154;27.614;2024-02-28T02:05:06;11.30;;;10.80;;
34737;SDS011;39910;47.154;27.614;2024-02-28T02:07:32;10.57;;;10.07;;
34737;SDS011;39910;47.154;27.614;2024-02-28T02:09:57;11.00;;;10.50;;
34737;SDS011;39910;47.154;27.614;2024-02-28T02:12:23;11.10;;;10.60;;
34737;SDS011;39910;47.154;27.614;2024-02-28T02:14:48;11.05;;;10.55;;
34737;SDS011;39910;47.154;27.614;2024-02-28T02:17:14;10.95;;;10.45;;
34737;SDS011;39910;47.154;27.614;2024-02-28T02:19:39;10.70;;;10.20;;
34737;SDS011;39910;47.154;27.614;2024-02-28T02:22:05;10.93;;;10.43;;
34737;SDS011;39910;47.154;27.614;2024-02-28T02:24:30;11.30;;;10.80;;
34737;SDS011;39910;47.154;27.614;2024-02-28T02:26:57;11.32;;;10.82;;
34737;SDS011;39910;47.154;27.614;2024-02-28T02:29:23;10.70;;;10.20;;
34737;SDS011;39910;47.154;27.614;2024-02-28T02:31:48;11.30;;;10.80;;
34737;SDS011;39910;47.154;27.614;2024-02-28T02:34:14;11.00;;;10.50;;
34737;SDS011;39910;47.154;27.614;2024-02-28T02:36:39;10.85;;;10.35;;
34737;SDS011;39910;47.154;27.614;2024-02-28T02:39:04;10.98;;;10.48;;
34737;SDS011;39910;47.154;27.614;2024-02-28T02:41:30;10.50;;;10.00;;
34737;SDS011;39910;47.154;27.614;2024-02-28T02:43:55;10.35;;;9.85;;
34737;SDS011;39910;47.154;27.614;2024-02-28T02:46:22;10.82;;;10.32;;
34737;SDS011;39910;47.154;27.614;2024-02-28T02:48:47;11.30;;;10.75;;
34737;SDS011;39910;47.154;27.614;2024-02-28T02:51:12;10.73;;;10.23;;
34737;SDS011;39910;47.154;27.614;2024-02-28T02:53:38;10.80;;;10.30;;
34737;SDS011;39910;47.154;27.614;2024-02-28T02:56:03;10.68;;;10.18;;
34737;SDS011;39910;47.154;27.614;2024-02-28T02:58:29;10.60;;;10.10;;
34737;SDS011;39910;47.154;27.614;2024-02-28T03:00:54;10.50;;;10.00;;
34737;SDS011;39910;47.154;27.614;2024-02-28T03:03:19;11.20;;;10.70;;
34737;SDS011;39910;47.154;27.614;2024-02-28T03:05:45;10.68;;;10.18;;
34737;SDS011;39910;47.154;27.614;2024-02-28T03:08:10;10.57;;;10.07;;
34737;SDS011;39910;47.154;27.614;2024-02-28T03:10:36;10.88;;;10.38;;
34737;SDS011;39910;47.154;27.614;2024-02-28T03:13:01;10.77;;;10.27;;
34737;SDS011;39910;47.154;27.614;2024-02-28T03:15:27;11.43;;;10.85;;
34737;SDS011;39910;47.154;27.614;2024-02-28T03:17:54;10.55;;;10.05;;
34737;SDS011;39910;47.154;27.614;2024-02-28T03:20:20;10.60;;;10.10;;
34737;SDS011;39910;47.154;27.614;2024-02-28T03:22:46;10.60;;;10.10;;
34737;SDS011;39910;47.154;27.614;2024-02-28T03:25:11;10.80;;;10.30;;
34737;SDS011;39910;47.154;27.614;2024-02-28T03:27:37;10.95;;;10.45;;
34737;SDS011;39910;47.154;27.614;2024-02-28T03:30:02;10.80;;;10.30;;
34737;SDS011;39910;47.154;27.614;2024-02-28T03:32:28;10.65;;;10.15;;
34737;SDS011;39910;47.154;27.614;2024-02-28T03:34:54;10.68;;;10.18;;
34737;SDS011;39910;47.154;27.614;2024-02-28T03:37:19;11.60;;;11.00;;
34737;SDS011;39910;47.154;27.614;2024-02-28T03:39:45;10.90;;;10.40;;
34737;SDS011;39910;47.154;27.614;2024-02-28T03:42:10;11.40;;;10.82;;
34737;SDS011;39910;47.154;27.614;2024-02-28T03:44:35;10.70;;;10.20;;
34737;SDS011;39910;47.154;27.614;2024-02-28T03:47:01;10.50;;;10.00;;
34737;SDS011;39910;47.154;27.614;2024-02-28T03:49:26;10.50;;;10.00;;
34737;SDS011;39910;47.154;27.614;2024-02-28T03:51:51;10.80;;;10.30;;
34737;SDS011;39910;47.154;27.614;2024-02-28T03:54:17;11.40;;;10.80;;
34737;SDS011;39910;47.154;27.614;2024-02-28T03:56:42;10.90;;;10.40;;
34737;SDS011;39910;47.154;27.614;2024-02-28T03:59:08;10.60;;;10.10;;
34737;SDS011;39910;47.154;27.614;2024-02-28T04:01:33;11.27;;;10.75;;
34737;SDS011;39910;47.154;27.614;2024-02-28T04:03:59;10.55;;;10.05;;
34737;SDS011;39910;47.154;27.614;2024-02-28T04:06:24;10.90;;;10.40;;
34737;SDS011;39910;47.154;27.614;2024-02-28T04:08:50;10.50;;;10.00;;
34737;SDS011;39910;47.154;27.614;2024-02-28T04:11:15;10.70;;;10.20;;
34737;SDS011;39910;47.154;27.614;2024-02-28T04:13:40;10.50;;;10.00;;
34737;SDS011;39910;47.154;27.614;2024-02-28T04:16:08;11.10;;;10.60;;
34737;SDS011;39910;47.154;27.614;2024-02-28T04:18:33;11.63;;;11.02;;
34737;SDS011;39910;47.154;27.614;2024-02-28T04:20:59;10.75;;;10.25;;
34737;SDS011;39910;47.154;27.614;2024-02-28T04:23:24;10.73;;;10.23;;
34737;SDS011;39910;47.154;27.614;2024-02-28T04:25:49;10.60;;;10.10;;
34737;SDS011;39910;47.154;27.614;2024-02-28T04:28:15;10.90;;;10.40;;
34737;SDS011;39910;47.154;27.614;2024-02-28T04:30:40;11.55;;;10.95;;
34737;SDS011;39910;47.154;27.614;2024-02-28T04:33:05;11.00;;;10.50;;
34737;SDS011;39910;47.154;27.614;2024-02-28T04:35:31;11.00;;;10.50;;
34737;SDS011;39910;47.154;27.614;2024-02-28T04:37:56;11.18;;;10.68;;
34737;SDS011;39910;47.154;27.614;2024-02-28T04:40:22;10.75;;;10.25;;
34737;SDS011;39910;47.154;27.614;2024-02-28T04:42:47;11.18;;;10.68;;
34737;SDS011;39910;47.154;27.614;2024-02-28T04:45:12;11.00;;;10.50;;
34737;SDS011;39910;47.154;27.614;2024-02-28T04:47:38;10.85;;;10.35;;
34737;SDS011;39910;47.154;27.614;2024-02-28T04:50:04;10.90;;;10.40;;
34737;SDS011;39910;47.154;27.614;2024-02-28T04:52:32;10.73;;;10.23;;
34737;SDS011;39910;47.154;27.614;2024-02-28T04:54:58;11.02;;;10.52;;
34737;SDS011;39910;47.154;27.614;2024-02-28T04:57:23;11.88;;;11.27;;
34737;SDS011;39910;47.154;27.614;2024-02-28T04:59:48;10.90;;;10.40;;
34737;SDS011;39910;47.154;27.614;2024-02-28T05:02:14;10.77;;;10.27;;
34737;SDS011;39910;47.154;27.614;2024-02-28T05:04:39;11.50;;;10.90;;
34737;SDS011;39910;47.154;27.614;2024-02-28T05:07:05;10.85;;;10.35;;
34737;SDS011;39910;47.154;27.614;2024-02-28T05:09:32;11.30;;;10.70;;
34737;SDS011;39910;47.154;27.614;2024-02-28T05:11:58;10.20;;;9.70;;
34737;SDS011;39910;47.154;27.614;2024-02-28T05:14:24;10.77;;;10.27;;
34737;SDS011;39910;47.154;27.614;2024-02-28T05:16:49;11.45;;;10.85;;
34737;SDS011;39910;47.154;27.614;2024-02-28T05:19:14;10.70;;;10.20;;
34737;SDS011;39910;47.154;27.614;2024-02-28T05:21:42;10.70;;;10.20;;
34737;SDS011;39910;47.154;27.614;2024-02-28T05:24:08;10.98;;;10.48;;
34737;SDS011;39910;47.154;27.614;2024-02-28T05:26:37;11.48;;;10.88;;
34737;SDS011;39910;47.154;27.614;2024-02-28T05:29:03;10.75;;;10.25;;
34737;SDS011;39910;47.154;27.614;2024-02-28T05:31:28;10.80;;;10.30;;
34737;SDS011;39910;47.154;27.614;2024-02-28T05:33:54;11.60;;;11.00;;
34737;SDS011;39910;47.154;27.614;2024-02-28T05:36:21;11.32;;;10.77;;
34737;SDS011;39910;47.154;27.614;2024-02-28T05:38:47;10.93;;;10.43;;
34737;SDS011;39910;47.154;27.614;2024-02-28T05:41:12;10.90;;;10.40;;
34737;SDS011;39910;47.154;27.614;2024-02-28T05:43:38;10.63;;;10.13;;
34737;SDS011;39910;47.154;27.614;2024-02-28T05:46:03;10.70;;;10.20;;
34737;SDS011;39910;47.154;27.614;2024-02-28T05:48:28;11.00;;;10.50;;
34737;SDS011;39910;47.154;27.614;2024-02-28T05:50:54;11.30;;;10.80;;
34737;SDS011;39910;47.154;27.614;2024-02-28T05:53:19;10.98;;;10.48;;
34737;SDS011;39910;47.154;27.614;2024-02-28T05:55:45;11.50;;;10.95;;
34737;SDS011;39910;47.154;27.614;2024-02-28T05:58:10;11.32;;;10.82;;
34737;SDS011;39910;47.154;27.614;2024-02-28T06:00:36;11.65;;;11.13;;
34737;SDS011;39910;47.154;27.614;2024-02-28T06:03:02;11.65;;;11.15;;
34737;SDS011;39910;47.154;27.614;2024-02-28T06:05:28;11.30;;;10.80;;
34737;SDS011;39910;47.154;27.614;2024-02-28T06:07:53;11.40;;;10.90;;
34737;SDS011;39910;47.154;27.614;2024-02-28T06:10:19;12.20;;;11.63;;
34737;SDS011;39910;47.154;27.614;2024-02-28T06:12:46;12.68;;;12.07;;
34737;SDS011;39910;47.154;27.614;2024-02-28T06:15:11;12.23;;;11.63;;
34737;SDS011;39910;47.154;27.614;2024-02-28T06:17:36;11.77;;;11.27;;
34737;SDS011;39910;47.154;27.614;2024-02-28T06:20:02;11.65;;;11.15;;
34737;SDS011;39910;47.154;27.614;2024-02-28T06:22:27;11.95;;;11.45;;
34737;SDS011;39910;47.154;27.614;2024-02-28T06:24:53;12.25;;;11.65;;
34737;SDS011;39910;47.154;27.614;2024-02-28T06:27:18;12.35;;;11.75;;
34737;SDS011;39910;47.154;27.614;2024-02-28T06:29:43;11.90;;;11.40;;
34737;SDS011;39910;47.154;27.614;2024-02-28T06:32:09;12.70;;;12.10;;
34737;SDS011;39910;47.154;27.614;2024-02-28T06:34:34;12.10;;;11.60;;
34737;SDS011;39910;47.154;27.614;2024-02-28T06:37:00;12.25;;;11.73;;
34737;SDS011;39910;47.154;27.614;2024-02-28T06:39:25;12.45;;;11.85;;
34737;SDS011;39910;47.154;27.614;2024-02-28T06:41:50;11.93;;;11.43;;
34737;SDS011;39910;47.154;27.614;2024-02-28T06:44:19;12.48;;;11.88;;
34737;SDS011;39910;47.154;27.614;2024-02-28T06:46:45;12.70;;;12.10;;
34737;SDS011;39910;47.154;27.614;2024-02-28T06:49:10;12.15;;;11.63;;
34737;SDS011;39910;47.154;27.614;2024-02-28T06:51:35;12.50;;;11.90;;
34737;SDS011;39910;47.154;27.614;2024-02-28T06:54:01;12.40;;;11.80;;
34737;SDS011;39910;47.154;27.614;2024-02-28T06:56:27;12.52;;;11.93;;
34737;SDS011;39910;47.154;27.614;2024-02-28T06:58:52;12.15;;;11.63;;
34737;SDS011;39910;47.154;27.614;2024-02-28T07:01:17;12.50;;;11.90;;
34737;SDS011;39910;47.154;27.614;2024-02-28T07:03:43;12.70;;;12.10;;
34737;SDS011;39910;47.154;27.614;2024-02-28T07:06:09;12.65;;;12.05;;
34737;SDS011;39910;47.154;27.614;2024-02-28T07:08:34;12.50;;;11.90;;
34737;SDS011;39910;47.154;27.614;2024-02-28T07:11:00;12.65;;;12.05;;
34737;SDS011;39910;47.154;27.614;2024-02-28T07:13:26;12.70;;;12.10;;
34737;SDS011;39910;47.154;27.614;2024-02-28T07:15:52;12.77;;;12.18;;
34737;SDS011;39910;47.154;27.614;2024-02-28T07:18:19;12.23;;;11.70;;
34737;SDS011;39910;47.154;27.614;2024-02-28T07:20:45;12.70;;;12.10;;
34737;SDS011;39910;47.154;27.614;2024-02-28T07:23:11;12.45;;;11.85;;
34737;SDS011;39910;47.154;27.614;2024-02-28T07:25:36;12.52;;;11.93;;
34737;SDS011;39910;47.154;27.614;2024-02-28T07:28:02;12.93;;;12.32;;
34737;SDS011;39910;47.154;27.614;2024-02-28T07:30:28;13.00;;;12.40;;
34737;SDS011;39910;47.154;27.614;2024-02-28T07:32:53;12.20;;;11.70;;
34737;SDS011;39910;47.154;27.614;2024-02-28T07:35:19;12.27;;;11.70;;
34737;SDS011;39910;47.154;27.614;2024-02-28T07:37:46;12.75;;;12.15;;
34737;SDS011;39910;47.154;27.614;2024-02-28T07:40:11;12.90;;;12.30;;
34737;SDS011;39910;47.154;27.614;2024-02-28T07:42:37;12.43;;;11.82;;
34737;SDS011;39910;47.154;27.614;2024-02-28T07:45:02;12.13;;;11.63;;
34737;SDS011;39910;47.154;27.614;2024-02-28T07:47:28;13.02;;;12.43;;
34737;SDS011;39910;47.154;27.614;2024-02-28T07:49:53;12.55;;;11.95;;
34737;SDS011;39910;47.154;27.614;2024-02-28T07:52:19;12.60;;;12.00;;
34737;SDS011;39910;47.154;27.614;2024-02-28T07:54:44;13.25;;;12.65;;
34737;SDS011;39910;47.154;27.614;2024-02-28T07:57:10;12.27;;;11.73;;
34737;SDS011;39910;47.154;27.614;2024-02-28T07:59:41;12.38;;;11.77;;
34737;SDS011;39910;47.154;27.614;2024-02-28T08:02:07;12.30;;;11.80;;
34737;SDS011;39910;47.154;27.614;2024-02-28T08:04:32;12.55;;;11.95;;
34737;SDS011;39910;47.154;27.614;2024-02-28T08:06:59;12.75;;;12.15;;
34737;SDS011;39910;47.154;27.614;2024-02-28T08:09:24;12.23;;;11.70;;
34737;SDS011;39910;47.154;27.614;2024-02-28T08:11:50;12.10;;;11.60;;
34737;SDS011;39910;47.154;27.614;2024-02-28T08:14:15;12.35;;;11.75;;
34737;SDS011;39910;47.154;27.614;2024-02-28T08:16:40;12.65;;;12.05;;
34737;SDS011;39910;47.154;27.614;2024-02-28T08:19:06;12.88;;;12.27;;
34737;SDS011;39910;47.154;27.614;2024-02-28T08:21:31;13.07;;;12.48;;
34737;SDS011;39910;47.154;27.614;2024-02-28T08:23:56;12.77;;;12.18;;
34737;SDS011;39910;47.154;27.614;2024-02-28T08:26:23;12.40;;;11.80;;
34737;SDS011;39910;47.154;27.614;2024-02-28T08:28:48;12.40;;;11.80;;
34737;SDS011;39910;47.154;27.614;2024-02-28T08:31:14;12.52;;;11.93;;
34737;SDS011;39910;47.154;27.614;2024-02-28T08:33:40;12.00;;;11.50;;
34737;SDS011;39910;47.154;27.614;2024-02-28T08:36:06;12.38;;;11.77;;
34737;SDS011;39910;47.154;27.614;2024-02-28T08:38:31;12.07;;;11.57;;
34737;SDS011;39910;47.154;27.614;2024-02-28T08:40:56;12.27;;;11.73;;
34737;SDS011;39910;47.154;27.614;2024-02-28T08:43:22;12.60;;;12.00;;
34737;SDS011;39910;47.154;27.614;2024-02-28T08:45:47;12.48;;;11.88;;
34737;SDS011;39910;47.154;27.614;2024-02-28T08:48:15;13.05;;;12.45;;
34737;SDS011;39910;47.154;27.614;2024-02-28T08:50:40;12.90;;;12.30;;
34737;SDS011;39910;47.154;27.614;2024-02-28T08:53:06;13.65;;;13.05;;
34737;SDS011;39910;47.154;27.614;2024-02-28T08:55:32;13.00;;;12.40;;
34737;SDS011;39910;47.154;27.614;2024-02-28T08:57:57;12.75;;;12.15;;
34737;SDS011;39910;47.154;27.614;2024-02-28T09:00:22;12.48;;;11.88;;
34737;SDS011;39910;47.154;27.614;2024-02-28T09:02:48;13.15;;;12.55;;
34737;SDS011;39910;47.154;27.614;2024-02-28T09:05:13;12.50;;;11.90;;
34737;SDS011;39910;47.154;27.614;2024-02-28T09:07:38;12.52;;;11.93;;
34737;SDS011;39910;47.154;27.614;2024-02-28T09:10:04;12.60;;;12.00;;
34737;SDS011;39910;47.154;27.614;2024-02-28T09:12:33;12.68;;;12.07;;
34737;SDS011;39910;47.154;27.614;2024-02-28T09:14:58;12.65;;;12.05;;
34737;SDS011;39910;47.154;27.614;2024-02-28T09:17:24;12.73;;;12.13;;
34737;SDS011;39910;47.154;27.614;2024-02-28T09:19:49;12.32;;;11.73;;
34737;SDS011;39910;47.154;27.614;2024-02-28T09:22:15;12.25;;;11.68;;
34737;SDS011;39910;47.154;27.614;2024-02-28T09:24:42;11.98;;;11.48;;
34737;SDS011;39910;47.154;27.614;2024-02-28T09:27:07;11.77;;;11.27;;
34737;SDS011;39910;47.154;27.614;2024-02-28T09:29:33;11.55;;;11.05;;
34737;SDS011;39910;47.154;27.614;2024-02-28T09:31:58;12.00;;;11.50;;
34737;SDS011;39910;47.154;27.614;2024-02-28T09:34:24;12.27;;;11.68;;
34737;SDS011;39910;47.154;27.614;2024-02-28T09:36:49;11.77;;;11.27;;
34737;SDS011;39910;47.154;27.614;2024-02-28T09:39:15;11.80;;;11.30;;
34737;SDS011;39910;47.154;27.614;2024-02-28T09:41:40;12.00;;;11.50;;
34737;SDS011;39910;47.154;27.614;2024-02-28T09:44:06;12.60;;;12.00;;
34737;SDS011;39910;47.154;27.614;2024-02-28T09:46:32;12.57;;;11.98;;
34737;SDS011;39910;47.154;27.614;2024-02-28T09:48:59;11.70;;;11.20;;
34737;SDS011;39910;47.154;27.614;2024-02-28T09:51:26;11.70;;;11.20;;
34737;SDS011;39910;47.154;27.614;2024-02-28T09:53:52;11.85;;;11.35;;
34737;SDS011;39910;47.154;27.614;2024-02-28T09:56:18;12.32;;;11.73;;
34737;SDS011;39910;47.154;27.614;2024-02-28T09:58:44;12.50;;;11.90;;
34737;SDS011;39910;47.154;27.614;2024-02-28T10:01:09;12.27;;;11.68;;
34737;SDS011;39910;47.154;27.614;2024-02-28T10:03:36;11.45;;;10.95;;
34737;SDS011;39910;47.154;27.614;2024-02-28T10:06:01;12.13;;;11.52;;
34737;SDS011;39910;47.154;27.614;2024-02-28T10:08:27;12.95;;;12.35;;
34737;SDS011;39910;47.154;27.614;2024-02-28T10:10:54;12.80;;;12.20;;
34737;SDS011;39910;47.154;27.614;2024-02-28T10:13:21;12.50;;;11.90;;
34737;SDS011;39910;47.154;27.614;2024-02-28T10:15:47;12.35;;;11.75;;
34737;SDS011;39910;47.154;27.614;2024-02-28T10:18:12;12.32;;;11.73;;
34737;SDS011;39910;47.154;27.614;2024-02-28T10:20:38;12.32;;;11.73;;
34737;SDS011;39910;47.154;27.614;2024-02-28T10:23:06;12.40;;;11.80;;
34737;SDS011;39910;47.154;27.614;2024-02-28T10:25:41;11.82;;;11.30;;
34737;SDS011;39910;47.154;27.614;2024-02-28T10:28:06;11.57;;;11.07;;
34737;SDS011;39910;47.154;27.614;2024-02-28T10:30:32;12.68;;;12.07;;
34737;SDS011;39910;47.154;27.614;2024-02-28T10:32:57;12.23;;;11.63;;
34737;SDS011;39910;47.154;27.614;2024-02-28T10:35:22;12.40;;;11.80;;
34737;SDS011;39910;47.154;27.614;2024-02-28T10:37:52;12.00;;;11.40;;
34737;SDS011;39910;47.154;27.614;2024-02-28T10:40:20;11.73;;;11.20;;
34737;SDS011;39910;47.154;27.614;2024-02-28T10:42:46;11.60;;;11.10;;
34737;SDS011;39910;47.154;27.614;2024-02-28T10:45:13;11.88;;;11.27;;
34737;SDS011;39910;47.154;27.614;2024-02-28T10:47:38;11.70;;;11.20;;
34737;SDS011;39910;47.154;27.614;2024-02-28T10:50:04;11.15;;;10.65;;
34737;SDS011;39910;47.154;27.614;2024-02-28T10:52:30;11.60;;;11.10;;
34737;SDS011;39910;47.154;27.614;2024-02-28T10:54:58;11.95;;;11.35;;
34737;SDS011;39910;47.154;27.614;2024-02-28T10:57:25;12.25;;;11.65;;
34737;SDS011;39910;47.154;27.614;2024-02-28T10:59:51;11.93;;;11.32;;
34737;SDS011;39910;47.154;27.614;2024-02-28T11:02:17;12.15;;;11.55;;
34737;SDS011;39910;47.154;27.614;2024-02-28T11:04:42;12.65;;;12.05;;
34737;SDS011;39910;47.154;27.614;2024-02-28T11:07:08;11.55;;;11.05;;
34737;SDS011;39910;47.154;27.614;2024-02-28T11:09:33;11.70;;;11.20;;
34737;SDS011;39910;47.154;27.614;2024-02-28T11:11:59;12.20;;;11.60;;
34737;SDS011;39910;47.154;27.614;2024-02-28T11:14:24;11.65;;;11.15;;
34737;SDS011;39910;47.154;27.614;2024-02-28T11:19:27;11.93;;;11.35;;
34737;SDS011;39910;47.154;27.614;2024-02-28T11:21:56;12.10;;;11.50;;
34737;SDS011;39910;47.154;27.614;2024-02-28T11:24:28;12.20;;;11.60;;
34737;SDS011;39910;47.154;27.614;2024-02-28T11:26:54;11.50;;;11.00;;
34737;SDS011;39910;47.154;27.614;2024-02-28T11:29:26;12.35;;;11.75;;
34737;SDS011;39910;47.154;27.614;2024-02-28T11:31:51;12.18;;;11.57;;
34737;SDS011;39910;47.154;27.614;2024-02-28T11:34:17;12.13;;;11.52;;
34737;SDS011;39910;47.154;27.614;2024-02-28T11:36:43;12.10;;;11.50;;
34737;SDS011;39910;47.154;27.614;2024-02-28T11:39:08;11.85;;;11.32;;
34737;SDS011;39910;47.154;27.614;2024-02-28T11:41:33;11.20;;;10.70;;
34737;SDS011;39910;47.154;27.614;2024-02-28T11:43:59;11.73;;;11.23;;
34737;SDS011;39910;47.154;27.614;2024-02-28T11:46:26;12.02;;;11.43;;
34737;SDS011;39910;47.154;27.614;2024-02-28T11:48:51;11.52;;;11.02;;
34737;SDS011;39910;47.154;27.614;2024-02-28T11:51:17;11.80;;;11.30;;
34737;SDS011;39910;47.154;27.614;2024-02-28T11:53:42;11.90;;;11.40;;
34737;SDS011;39910;47.154;27.614;2024-02-28T11:56:08;12.13;;;11.52;;
34737;SDS011;39910;47.154;27.614;2024-02-28T11:58:33;12.18;;;11.57;;
34737;SDS011;39910;47.154;27.614;2024-02-28T12:00:58;11.80;;;11.30;;
34737;SDS011;39910;47.154;27.614;2024-02-28T12:03:24;12.52;;;11.93;;
34737;SDS011;39910;47.154;27.614;2024-02-28T12:05:50;11.60;;;11.10;;
34737;SDS011;39910;47.154;27.614;2024-02-28T12:08:17;11.60;;;11.10;;
34737;SDS011;39910;47.154;27.614;2024-02-28T12:10:43;11.55;;;11.05;;
34737;SDS011;39910;47.154;27.614;2024-02-28T12:13:08;12.30;;;11.70;;
34737;SDS011;39910;47.154;27.614;2024-02-28T12:15:34;11.50;;;11.00;;
34737;SDS011;39910;47.154;27.614;2024-02-28T12:17:59;11.43;;;10.93;;
34737;SDS011;39910;47.154;27.614;2024-02-28T12:20:25;12.20;;;11.60;;
34737;SDS011;39910;47.154;27.614;2024-02-28T12:22:50;11.70;;;11.20;;
34737;SDS011;39910;47.154;27.614;2024-02-28T12:25:16;12.30;;;11.70;;
34737;SDS011;39910;47.154;27.614;2024-02-28T12:27:41;11.82;;;11.32;;
34737;SDS011;39910;47.154;27.614;2024-02-28T12:30:07;12.20;;;11.60;;
34737;SDS011;39910;47.154;27.614;2024-02-28T12:32:32;12.13;;;11.52;;
34737;SDS011;39910;47.154;27.614;2024-02-28T12:34:58;12.10;;;11.50;;
34737;SDS011;39910;47.154;27.614;2024-02-28T12:37:23;11.82;;;11.32;;
34737;SDS011;39910;47.154;27.614;2024-02-28T12:39:49;11.88;;;11.38;;
34737;SDS011;39910;47.154;27.614;2024-02-28T12:42:16;12.10;;;11.50;;
34737;SDS011;39910;47.154;27.614;2024-02-28T12:44:42;11.65;;;11.15;;
34737;SDS011;39910;47.154;27.614;2024-02-28T12:47:13;11.60;;;11.10;;
34737;SDS011;39910;47.154;27.614;2024-02-28T12:49:38;11.60;;;11.10;;
34737;SDS011;39910;47.154;27.614;2024-02-28T12:52:03;11.32;;;10.82;;
34737;SDS011;39910;47.154;27.614;2024-02-28T12:54:29;11.50;;;11.00;;
34737;SDS011;39910;47.154;27.614;2024-02-28T12:56:55;11.50;;;11.00;;
34737;SDS011;39910;47.154;27.614;2024-02-28T12:59:20;11.70;;;11.20;;
34737;SDS011;39910;47.154;27.614;2024-02-28T13:01:45;11.85;;;11.35;;
34737;SDS011;39910;47.154;27.614;2024-02-28T13:04:13;11.55;;;11.05;;
34737;SDS011;39910;47.154;27.614;2024-02-28T13:06:38;11.55;;;11.05;;
34737;SDS011;39910;47.154;27.614;2024-02-28T13:09:04;11.57;;;11.07;;
34737;SDS011;39910;47.154;27.614;2024-02-28T13:11:31;11.35;;;10.85;;
34737;SDS011;39910;47.154;27.614;2024-02-28T13:13:58;12.20;;;11.60;;
34737;SDS011;39910;47.154;27.614;2024-02-28T13:16:24;12.80;;;12.20;;
34737;SDS011;39910;47.154;27.614;2024-02-28T13:18:49;11.90;;;11.40;;
34737;SDS011;39910;47.154;27.614;2024-02-28T13:21:15;12.52;;;11.93;;
34737;SDS011;39910;47.154;27.614;2024-02-28T13:23:40;12.48;;;11.88;;
34737;SDS011;39910;47.154;27.614;2024-02-28T13:26:06;12.80;;;12.20;;
34737;SDS011;39910;47.154;27.614;2024-02-28T13:28:32;12.27;;;11.68;;
34737;SDS011;39910;47.154;27.614;2024-02-28T13:30:58;12.40;;;11.80;;
34737;SDS011;39910;47.154;27.614;2024-02-28T13:33:24;12.20;;;11.60;;
34737;SDS011;39910;47.154;27.614;2024-02-28T13:35:49;12.23;;;11.63;;
34737;SDS011;39910;47.154;27.614;2024-02-28T13:38:15;12.35;;;11.75;;
34737;SDS011;39910;47.154;27.614;2024-02-28T13:40:40;12.57;;;11.98;;
34737;SDS011;39910;47.154;27.614;2024-02-28T13:43:06;12.20;;;11.60;;
34737;SDS011;39910;47.154;27.614;2024-02-28T13:45:32;12.07;;;11.50;;
34737;SDS011;39910;47.154;27.614;2024-02-28T13:47:57;12.23;;;11.63;;
34737;SDS011;39910;47.154;27.614;2024-02-28T13:50:23;12.15;;;11.55;;
34737;SDS011;39910;47.154;27.614;2024-02-28T13:52:56;12.40;;;11.80;;
34737;SDS011;39910;47.154;27.614;2024-02-28T13:55:22;11.80;;;11.30;;
34737;SDS011;39910;47.154;27.614;2024-02-28T13:57:47;12.10;;;11.50;;
34737;SDS011;39910;47.154;27.614;2024-02-28T14:00:13;12.60;;;12.00;;
34737;SDS011;39910;47.154;27.614;2024-02-28T14:02:39;12.40;;;11.80;;